createdAt,value
2023-03-17T00:04:40.268Z,4.20
2023-03-17T00:10:45.613Z,3.72
2023-03-17T00:16:50.251Z,3.70
2023-03-17T00:22:54.500Z,4.97
2023-03-17T00:28:59.284Z,7.25
2023-03-17T00:35:05.235Z,9.40
2023-03-17T00:41:10.684Z,6.55
2023-03-17T00:47:15.568Z,4.05
2023-03-17T00:53:20.542Z,3.60
2023-03-17T00:59:27.862Z,3.17
2023-03-17T01:05:33.049Z,3.42
2023-03-17T01:11:36.652Z,2.90
2023-03-17T01:17:40.159Z,3.70
2023-03-17T01:23:45.492Z,3.20
2023-03-17T01:29:49.492Z,3.38
2023-03-17T01:35:53.291Z,3.63
2023-03-17T01:42:01.417Z,3.60
2023-03-17T01:48:04.909Z,3.72
2023-03-17T01:54:10.574Z,4.82
2023-03-17T02:00:18.077Z,6.35
2023-03-17T02:06:22.328Z,4.75
2023-03-17T02:12:26.170Z,3.80
2023-03-17T02:18:32.193Z,3.97
2023-03-17T02:24:38.299Z,3.30
2023-03-17T02:30:41.997Z,2.65
2023-03-17T02:36:46.285Z,3.25
2023-03-17T02:42:51.424Z,3.30
2023-03-17T02:48:55.753Z,3.60
2023-03-17T02:54:59.352Z,3.85
2023-03-17T03:01:04.219Z,3.05
2023-03-17T03:07:08.386Z,3.78
2023-03-17T03:13:13.727Z,3.70
2023-03-17T03:19:18.589Z,3.70
2023-03-17T03:25:22.074Z,3.88
2023-03-17T03:31:25.639Z,4.00
2023-03-17T03:37:30.423Z,3.80
2023-03-17T03:43:33.834Z,3.83
2023-03-17T03:49:37.221Z,3.90
2023-03-17T03:55:42.008Z,4.13
2023-03-17T04:01:45.677Z,4.10
2023-03-17T04:07:49.120Z,3.78
2023-03-17T04:13:55.222Z,3.60
2023-03-17T04:19:58.705Z,3.50
2023-03-17T04:26:02.504Z,3.65
2023-03-17T04:32:08.219Z,3.47
2023-03-17T04:38:13.286Z,3.83
2023-03-17T04:44:16.795Z,3.58
2023-03-17T04:50:22.091Z,3.15
2023-03-17T04:56:25.660Z,4.00
2023-03-17T05:02:29.215Z,3.35
2023-03-17T05:08:34.122Z,3.65
2023-03-17T05:14:37.616Z,3.70
2023-03-17T05:20:44.501Z,3.90
2023-03-17T05:26:49.424Z,3.67
2023-03-17T05:32:53.186Z,4.03
2023-03-17T05:38:56.673Z,3.88
2023-03-17T05:45:01.516Z,3.92
2023-03-17T05:51:05.264Z,3.55
2023-03-17T05:57:08.916Z,3.65
2023-03-17T06:03:13.709Z,3.42
2023-03-17T06:09:18.400Z,3.40
2023-03-17T06:15:22.993Z,4.00
2023-03-17T06:21:27.879Z,3.70
2023-03-17T06:27:31.320Z,3.42
2023-03-17T06:33:35.387Z,4.38
2023-03-17T06:39:41.809Z,4.32
2023-03-17T06:45:45.203Z,5.90
2023-03-17T06:51:48.873Z,4.38
2023-03-17T06:57:54.343Z,4.28
2023-03-17T07:03:58.748Z,5.40
2023-03-17T07:10:02.218Z,4.53
2023-03-17T07:16:07.335Z,4.50
2023-03-17T07:22:11.904Z,4.07
2023-03-17T07:28:15.851Z,4.10
2023-03-17T07:34:20.652Z,4.80
2023-03-17T07:40:24.439Z,4.90
2023-03-17T07:46:28.518Z,5.70
2023-03-17T07:52:34.378Z,5.38
2023-03-17T07:58:37.849Z,4.50
2023-03-17T08:04:41.482Z,3.35
2023-03-17T08:10:46.870Z,4.90
2023-03-17T08:16:50.374Z,4.97
2023-03-17T08:22:53.779Z,5.18
2023-03-17T08:28:58.613Z,5.15
2023-03-17T08:35:02.835Z,4.57
2023-03-17T08:41:08.017Z,5.13
2023-03-17T08:47:12.994Z,5.07
2023-03-17T08:53:16.427Z,5.30
2023-03-17T08:59:19.896Z,5.03
2023-03-17T09:05:25.214Z,5.13
2023-03-17T09:11:29.925Z,5.72
2023-03-17T09:17:33.327Z,4.88
2023-03-17T09:23:38.190Z,5.38
2023-03-17T09:29:43.296Z,5.40
2023-03-17T09:35:46.882Z,5.95
2023-03-17T09:41:57.118Z,5.30
2023-03-17T09:48:06.015Z,4.65
2023-03-17T09:54:12.852Z,5.10
2023-03-17T10:00:19.148Z,4.63
2023-03-17T10:06:36.877Z,4.40
2023-03-17T10:12:45.569Z,4.07
2023-03-17T10:18:54.088Z,3.30
2023-03-17T10:25:01.707Z,5.03
2023-03-17T10:31:15.572Z,4.60
2023-03-17T10:37:21.677Z,3.30
2023-03-17T10:43:29.926Z,2.40
2023-03-17T10:49:36.877Z,4.50
2023-03-17T10:55:44.805Z,4.28
2023-03-17T11:01:50.230Z,4.88
2023-03-17T11:07:58.795Z,4.32
2023-03-17T11:14:07.044Z,4.28
2023-03-17T11:20:33.293Z,4.50
2023-03-17T11:26:58.734Z,4.72
2023-03-17T11:33:07.756Z,4.35
2023-03-17T11:39:14.098Z,4.63
2023-03-17T11:45:25.385Z,4.53
2023-03-17T11:51:36.109Z,4.53
2023-03-17T11:57:43.598Z,4.03
2023-03-17T12:03:49.895Z,4.30
2023-03-17T12:10:00.478Z,3.72
2023-03-17T12:16:06.190Z,3.50
2023-03-17T12:22:11.857Z,4.57
2023-03-17T12:28:18.744Z,3.50
2023-03-17T12:34:24.305Z,2.72
2023-03-17T12:40:30.615Z,4.00
2023-03-17T12:46:50.127Z,3.00
2023-03-17T12:53:00.552Z,3.75
2023-03-17T12:59:04.828Z,4.05
2023-03-17T13:05:11.854Z,3.90
2023-03-17T13:11:17.005Z,2.45
2023-03-17T13:17:33.927Z,4.47
2023-03-17T13:23:41.688Z,3.05
2023-03-17T13:29:49.296Z,2.45
2023-03-17T13:36:10.848Z,2.85
2023-03-17T13:42:21.588Z,2.08
2023-03-17T13:48:36.350Z,1.85
2023-03-17T13:54:43.119Z,3.65
2023-03-17T14:00:48.974Z,2.22
2023-03-17T14:06:54.853Z,2.25
2023-03-17T14:13:00.960Z,2.38
2023-03-17T14:19:13.049Z,1.65
2023-03-17T14:25:18.223Z,8.48
2023-03-17T14:31:24.096Z,18.13
2023-03-17T14:37:29.604Z,3.30
2023-03-17T14:43:33.261Z,5.35
2023-03-17T14:49:37.056Z,4.18
2023-03-17T14:55:43.492Z,2.50
2023-03-17T15:01:48.660Z,3.55
2023-03-17T15:07:53.000Z,2.88
2023-03-17T15:14:07.183Z,5.13
2023-03-17T15:20:15.565Z,3.40
2023-03-17T15:26:24.077Z,2.58
2023-03-17T15:32:29.454Z,3.08
2023-03-17T15:38:33.835Z,4.18
2023-03-17T15:44:37.337Z,4.28
2023-03-17T15:50:42.474Z,2.53
2023-03-17T15:56:46.205Z,3.20
2023-03-17T16:02:50.834Z,2.85
2023-03-17T16:08:56.051Z,2.90
2023-03-17T16:15:00.723Z,3.30
2023-03-17T16:21:05.670Z,2.65
2023-03-17T16:27:15.771Z,2.33
2023-03-17T16:33:20.534Z,2.55
2023-03-17T16:39:25.812Z,2.65
2023-03-17T16:45:32.853Z,3.80
2023-03-17T16:51:36.498Z,3.60
2023-03-17T16:57:40.741Z,3.22
2023-03-17T17:03:46.104Z,3.72
2023-03-17T17:09:49.556Z,4.65
2023-03-17T17:15:53.098Z,4.68
2023-03-17T17:21:57.912Z,4.45
2023-03-17T17:28:01.941Z,4.30
2023-03-17T17:34:05.962Z,3.80
2023-03-17T17:40:14.026Z,4.82
2023-03-17T17:46:19.133Z,4.28
2023-03-17T17:52:22.720Z,4.97
2023-03-17T17:58:28.143Z,4.40
2023-03-17T18:04:32.092Z,4.30
2023-03-17T18:10:36.104Z,4.00
2023-03-17T18:16:41.676Z,4.38
2023-03-17T18:22:45.631Z,4.60
2023-03-17T18:28:49.100Z,4.68
2023-03-17T18:34:54.946Z,4.00
2023-03-17T18:40:58.386Z,4.65
2023-03-17T18:47:02.445Z,5.25
2023-03-17T18:53:07.252Z,5.47
2023-03-17T18:59:10.848Z,6.60
2023-03-17T19:05:14.438Z,5.28
2023-03-17T19:11:20.949Z,5.50
2023-03-17T19:17:24.426Z,6.18
2023-03-17T19:23:28.280Z,11.98
2023-03-17T19:29:33.670Z,13.48
2023-03-17T19:35:37.099Z,12.07
2023-03-17T19:41:41.322Z,7.68
2023-03-17T19:47:47.063Z,7.95
2023-03-17T19:53:50.484Z,18.33
2023-03-17T19:59:53.858Z,15.80
2023-03-17T20:05:58.756Z,23.02
2023-03-17T20:12:03.012Z,8.40
2023-03-17T20:18:06.875Z,16.42
2023-03-17T20:24:14.668Z,17.35
2023-03-17T20:30:18.403Z,13.07
2023-03-17T20:36:22.174Z,12.30
2023-03-17T20:42:27.084Z,8.93
2023-03-17T20:48:31.373Z,9.18
2023-03-17T20:54:36.048Z,10.30
2023-03-17T21:00:41.592Z,10.68
2023-03-17T21:06:45.227Z,11.55
2023-03-17T21:12:48.922Z,12.18
2023-03-17T21:18:54.125Z,10.85
2023-03-17T21:24:57.575Z,11.10
2023-03-17T21:31:01.336Z,10.32
2023-03-17T21:37:06.463Z,10.63
2023-03-17T21:43:09.894Z,13.43
2023-03-17T21:49:13.302Z,11.73
2023-03-17T21:55:18.919Z,10.90
2023-03-17T22:01:22.853Z,10.63
2023-03-17T22:07:26.434Z,10.88
2023-03-17T22:13:31.393Z,10.73
2023-03-17T22:19:34.923Z,9.32
2023-03-17T22:25:39.055Z,9.35
2023-03-17T22:31:43.892Z,8.50
2023-03-17T22:37:47.889Z,7.15
2023-03-17T22:43:51.385Z,7.38
2023-03-17T22:49:56.206Z,6.82
2023-03-17T22:55:59.756Z,6.13
2023-03-17T23:02:03.392Z,5.40
2023-03-17T23:08:08.240Z,5.78
2023-03-17T23:14:11.733Z,5.55
2023-03-17T23:20:16.068Z,6.18
2023-03-17T23:26:21.466Z,5.10
2023-03-17T23:32:25.262Z,6.47
2023-03-17T23:38:28.750Z,7.15
2023-03-17T23:44:33.859Z,7.57
2023-03-17T23:50:37.524Z,8.10
2023-03-17T23:56:40.979Z,7.45
